Time;durP1;ratioP1;P1;durP2;ratioP2;P2;SDS_P1;SDS_P2;PMS_P1;PMS_P2;Temp;Humidity;BMP_temperature;BMP_pressure;BME280_temperature;BME280_humidity;BME280_pressure;Samples;Min_cycle;Max_cycle;Signal;HPM_P1;HPM_P2
2021/09/15 00:02:06;;;;;;;8.28;6.85;;;;;;;11.75;68.60;101138.91;1654766;84;21000;-84
2021/09/15 00:04:32;;;;;;;9.63;7.03;;;;;;;11.76;68.66;101134.15;1711941;83;21048;-84
2021/09/15 00:06:59;;;;;;;7.37;6.70;;;;;;;11.76;68.72;101125.94;1698197;83;21063;-84
2021/09/15 00:09:25;;;;;;;8.33;6.90;;;;;;;11.78;68.75;101123.36;1682966;84;21112;-85
2021/09/15 00:11:52;;;;;;;9.30;7.42;;;;;;;11.79;68.79;101123.34;1657554;85;21059;-85
2021/09/15 00:14:18;;;;;;;8.33;6.92;;;;;;;11.82;68.83;101129.78;1678143;83;21101;-85
2021/09/15 00:16:44;;;;;;;9.93;7.17;;;;;;;11.84;68.91;101124.58;1684064;84;21064;-85
2021/09/15 00:19:11;;;;;;;9.98;6.53;;;;;;;11.88;68.98;101123.66;1683775;84;21071;-85
2021/09/15 00:21:37;;;;;;;8.28;6.78;;;;;;;11.91;68.99;101124.92;1665514;84;21115;-85
2021/09/15 00:24:04;;;;;;;7.85;6.35;;;;;;;11.92;69.02;101117.12;1683806;83;21055;-85
2021/09/15 00:26:31;;;;;;;10.05;6.62;;;;;;;11.96;69.05;101113.20;1683156;84;21060;-85
2021/09/15 00:28:58;;;;;;;8.63;7.50;;;;;;;11.99;69.10;101119.16;1683653;83;21048;-85
2021/09/15 00:31:24;;;;;;;9.05;7.62;;;;;;;12.00;69.15;101113.09;1675930;83;21071;-85
2021/09/15 00:33:52;;;;;;;8.45;7.12;;;;;;;12.02;69.18;101110.48;1673059;83;21032;-85
2021/09/15 00:36:18;;;;;;;8.88;8.05;;;;;;;12.06;69.21;101108.27;1683380;83;21048;-85
2021/09/15 00:38:44;;;;;;;9.25;7.62;;;;;;;12.06;69.25;101111.72;1678069;84;21048;-85
2021/09/15 00:41:11;;;;;;;10.05;8.08;;;;;;;12.08;69.34;101109.11;1655912;85;21052;-85
2021/09/15 00:44:02;;;;;;;11.18;8.33;;;;;;;12.11;69.40;101106.03;1660818;85;21084;-85
2021/09/15 00:46:30;;;;;;;10.32;9.00;;;;;;;12.15;69.41;101103.81;1666300;85;20965;-85
2021/09/15 00:48:56;;;;;;;10.32;7.83;;;;;;;12.20;69.47;101097.27;1670393;83;20980;-84
2021/09/15 00:51:24;;;;;;;10.82;8.15;;;;;;;12.24;69.47;101098.93;1683420;83;33636;-84
2021/09/15 00:53:55;;;;;;;10.70;8.80;;;;;;;12.25;69.48;101105.39;1661090;83;21111;-85
2021/09/15 00:56:21;;;;;;;;;;;;;;;12.27;69.57;101098.89;1685820;84;21059;-85
2021/09/15 00:58:47;;;;;;;10.72;7.95;;;;;;;12.28;70.02;101091.52;1674702;83;21016;-85
2021/09/15 01:01:17;;;;;;;12.28;8.53;;;;;;;12.31;69.69;101093.22;1665504;83;21104;-85
2021/09/15 01:03:43;;;;;;;10.68;8.73;;;;;;;12.33;69.69;101093.61;1691725;83;21087;-85
2021/09/15 01:06:11;;;;;;;12.03;9.53;;;;;;;12.34;69.71;101094.47;1683585;84;21096;-85
2021/09/15 01:08:38;;;;;;;12.07;9.83;;;;;;;12.35;69.79;101090.55;1684234;84;20913;-85
2021/09/15 01:11:04;;;;;;;;;;;;;;;12.39;69.81;101087.47;1671282;83;20917;-85
2021/09/15 01:13:32;;;;;;;11.57;8.10;;;;;;;12.40;70.20;101097.82;1656865;85;20103;-85
2021/09/15 01:15:58;;;;;;;9.20;8.15;;;;;;;12.39;69.83;101096.11;1669117;85;20909;-85
2021/09/15 01:18:25;;;;;;;;;;;;;;;12.38;69.87;101087.91;1668883;85;21307;-85
2021/09/15 01:20:51;;;;;;;14.35;8.78;;;;;;;12.38;70.27;101091.80;1665393;83;20087;-85
2021/09/15 01:23:18;;;;;;;10.98;9.05;;;;;;;12.38;70.01;101089.65;1671749;84;20984;-85
2021/09/15 01:25:44;;;;;;;12.10;9.40;;;;;;;12.39;70.06;101084.44;1679054;85;20897;-85
2021/09/15 01:28:11;;;;;;;13.83;8.65;;;;;;;12.43;70.10;101083.95;1684653;84;28520;-85
2021/09/15 01:30:38;;;;;;;;;;;;;;;12.45;70.11;101088.23;1669411;83;20961;-85
2021/09/15 01:33:07;;;;;;;9.65;8.20;;;;;;;12.49;70.56;101086.41;1669614;83;20131;-85
2021/09/15 01:35:34;;;;;;;10.32;8.78;;;;;;;12.54;70.23;101086.75;1684471;85;21012;-85
2021/09/15 01:38:00;;;;;;;11.05;9.33;;;;;;;12.58;70.26;101088.41;1684727;83;20925;-85
2021/09/15 01:40:27;;;;;;;9.70;8.80;;;;;;;12.62;70.26;101085.77;1671190;84;20945;-85
2021/09/15 01:42:54;;;;;;;10.58;8.55;;;;;;;12.64;70.32;101083.56;1673631;83;20929;-85
2021/09/15 01:45:20;;;;;;;12.18;9.35;;;;;;;12.67;70.30;101085.25;1681576;84;20886;-85
2021/09/15 01:47:46;;;;;;;12.65;9.28;;;;;;;12.69;70.37;101081.75;1657201;86;21671;-85
2021/09/15 01:50:15;;;;;;;11.30;8.88;;;;;;;12.72;70.40;101080.84;1656958;85;20877;-85
2021/09/15 01:52:41;;;;;;;9.93;8.80;;;;;;;12.75;70.43;101085.98;1682599;83;20881;-85
2021/09/15 01:55:21;;;;;;;12.85;8.98;;;;;;;12.77;70.45;101082.47;1701363;83;20976;-85
2021/09/15 01:57:47;;;;;;;11.38;9.15;;;;;;;12.78;70.46;101090.67;1683694;83;20925;-85
2021/09/15 02:00:14;;;;;;;9.93;8.83;;;;;;;12.77;70.46;101088.11;1684849;84;21762;-85
2021/09/15 02:02:41;;;;;;;10.55;8.63;;;;;;;12.77;70.56;101088.96;1678953;83;20905;-84
2021/09/15 02:05:10;;;;;;;10.00;8.23;;;;;;;12.80;70.58;101091.95;1660846;83;20964;-84
2021/09/15 02:07:37;;;;;;;10.10;8.73;;;;;;;12.81;70.62;101085.88;1657229;85;26311;-85
2021/09/15 02:10:07;;;;;;;14.47;8.40;;;;;;;12.82;70.67;101085.84;1683061;83;20937;-85
2021/09/15 02:12:47;;;;;;;12.15;9.25;;;;;;;12.83;70.70;101077.17;1684871;83;20908;-85
2021/09/15 02:15:14;;;;;;;11.28;8.35;;;;;;;12.84;70.71;101076.30;1685020;84;21851;-85
2021/09/15 02:17:41;;;;;;;14.05;8.85;;;;;;;12.83;70.72;101075.88;1657493;84;709622;-85
2021/09/15 02:20:11;;;;;;;12.63;8.75;;;;;;;12.82;70.75;101076.77;1614550;87;21079;-84
2021/09/15 02:22:37;;;;;;;11.20;8.20;;;;;;;12.79;70.77;101076.81;1623460;87;21120;-84
2021/09/15 02:25:06;;;;;;;12.13;8.45;;;;;;;12.77;70.81;101071.23;1642816;85;21793;-85
2021/09/15 02:27:33;;;;;;;8.80;7.75;;;;;;;12.77;70.87;101071.23;1640407;86;21125;-85
2021/09/15 02:29:59;;;;;;;8.95;8.03;;;;;;;12.78;70.91;101075.11;1643511;85;21094;-85
2021/09/15 02:32:29;;;;;;;9.85;7.80;;;;;;;12.78;70.96;101063.42;1630028;85;21078;-85
2021/09/15 02:34:56;;;;;;;11.38;8.08;;;;;;;12.78;71.00;101058.23;1657344;85;21090;-85
2021/09/15 02:37:22;;;;;;;11.60;8.55;;;;;;;12.79;71.01;101055.20;1627249;86;21595;-85
2021/09/15 02:39:52;;;;;;;12.65;8.40;;;;;;;12.79;71.02;101050.01;1595566;88;21124;-85
2021/09/15 02:42:18;;;;;;;13.32;8.03;;;;;;;12.79;71.02;101057.80;1577367;90;21085;-85
2021/09/15 02:44:45;;;;;;;13.35;8.65;;;;;;;12.76;71.07;101051.36;1578938;87;21150;-85
2021/09/15 02:47:11;;;;;;;10.53;8.68;;;;;;;12.75;71.10;101061.33;1608349;86;21124;-85
2021/09/15 02:49:37;;;;;;;13.58;8.25;;;;;;;12.71;71.14;101068.75;1566824;90;21125;-85
2021/09/15 02:52:04;;;;;;;10.68;8.18;;;;;;;12.69;71.18;101059.69;1594924;86;21097;-85
2021/09/15 02:54:30;;;;;;;15.90;8.23;;;;;;;12.66;71.20;101066.23;1606747;87;21091;-85
2021/09/15 02:56:57;;;;;;;10.38;8.60;;;;;;;12.64;71.23;101065.84;1602474;87;21091;-85
2021/09/15 02:59:23;;;;;;;9.95;8.55;;;;;;;12.63;71.30;101064.13;1608601;88;21128;-85
2021/09/15 03:01:49;;;;;;;11.25;9.10;;;;;;;12.62;71.31;101062.42;1601002;88;21120;-84
2021/09/15 03:04:17;;;;;;;10.54;8.51;;;;;;;12.60;71.32;101055.96;1505400;87;10000254;-85
2021/09/15 03:06:44;;;;;;;11.25;8.93;;;;;;;12.54;71.12;101058.22;1626847;87;20910;-85
2021/09/15 03:09:10;;;;;;;10.75;8.95;;;;;;;12.51;71.34;101050.93;1648841;86;20926;-85
2021/09/15 03:11:36;;;;;;;13.18;10.28;;;;;;;12.48;71.41;101044.49;1637316;86;20938;-85
2021/09/15 03:14:03;;;;;;;12.33;9.68;;;;;;;12.46;71.47;101038.51;1644548;85;20988;-85
2021/09/15 03:16:30;;;;;;;19.35;11.30;;;;;;;12.45;71.49;101038.95;1614573;88;20883;-85
2021/09/15 03:18:56;;;;;;;10.93;9.03;;;;;;;12.43;71.54;101038.13;1596220;89;20965;-85
2021/09/15 03:21:22;;;;;;;16.25;9.38;;;;;;;12.43;71.55;101035.97;1584713;89;20982;-85
2021/09/15 03:23:49;;;;;;;9.98;8.75;;;;;;;12.41;71.59;101032.10;1591524;88;20929;-85
2021/09/15 03:26:15;;;;;;;18.23;9.73;;;;;;;12.39;71.63;101035.16;1571306;89;21414;-85
2021/09/15 03:28:41;;;;;;;11.38;9.28;;;;;;;12.39;71.65;101028.68;1575021;88;21010;-85
2021/09/15 03:31:08;;;;;;;11.57;9.33;;;;;;;12.37;71.65;101024.39;1583537;88;20925;-85
2021/09/15 03:33:35;;;;;;;11.38;9.05;;;;;;;12.33;71.68;101028.78;1610125;88;20993;-85
2021/09/15 03:36:02;;;;;;;12.18;9.80;;;;;;;12.31;71.72;101029.69;1609265;88;20902;-85
2021/09/15 03:38:28;;;;;;;10.13;9.13;;;;;;;12.29;71.76;101024.96;1583000;88;20985;-85
2021/09/15 03:41:03;;;;;;;12.18;9.08;;;;;;;12.26;71.79;101021.54;1596635;88;20906;-85
2021/09/15 03:43:29;;;;;;;15.00;10.50;;;;;;;12.25;71.84;101018.53;1649059;86;26888;-85
2021/09/15 03:45:59;;;;;;;10.63;9.45;;;;;;;12.25;71.91;101012.05;1623198;85;974306;-85
2021/09/15 03:48:25;;;;;;;19.67;9.90;;;;;;;12.25;71.95;101011.19;1622399;86;20990;-85
2021/09/15 03:50:51;;;;;;;14.23;10.13;;;;;;;12.24;71.95;101010.78;1631913;85;20934;-85
2021/09/15 03:53:18;;;;;;;14.90;9.90;;;;;;;12.23;72.00;101014.25;1627202;86;20958;-85
2021/09/15 03:55:44;;;;;;;18.30;10.03;;;;;;;12.23;72.06;101011.66;1648301;85;20968;-85
2021/09/15 03:58:10;;;;;;;13.13;9.20;;;;;;;12.23;72.04;101010.36;1637015;85;20943;-85
2021/09/15 04:00:40;;;;;;;14.95;10.08;;;;;;;12.22;72.05;101013.83;1646867;86;20965;-85
2021/09/15 04:03:06;;;;;;;10.93;9.80;;;;;;;12.18;72.05;101005.69;1658056;85;20958;-84
2021/09/15 04:05:33;;;;;;;14.90;10.45;;;;;;;12.15;72.09;101006.59;1682449;84;21066;-85
2021/09/15 04:08:00;;;;;;;13.75;10.45;;;;;;;12.12;72.14;101008.38;1656368;85;21025;-83
2021/09/15 04:10:27;;;;;;;19.27;10.82;;;;;;;12.10;72.17;101004.95;1668724;84;21487;-81
2021/09/15 04:12:53;;;;;;;18.30;10.93;;;;;;;12.08;72.22;101004.13;1668208;85;21131;-85
2021/09/15 04:15:31;;;;;;;23.92;10.82;;;;;;;12.04;72.22;101010.23;1663459;85;21065;-84
2021/09/15 04:17:58;;;;;;;13.98;10.70;;;;;;;11.99;72.28;101015.49;1667328;85;21063;-84
2021/09/15 04:20:24;;;;;;;17.35;10.88;;;;;;;11.98;72.39;101015.52;1664729;85;21525;-83
2021/09/15 04:22:51;;;;;;;11.55;10.32;;;;;;;11.99;72.44;101009.45;1657832;85;20991;-85
2021/09/15 04:33:34;;;;;;;21.30;12.88;;;;;;;12.09;72.56;101013.61;1660819;84;21666;-81
2021/09/15 04:36:01;;;;;;;27.55;13.65;;;;;;;12.08;72.61;101019.67;1654448;85;21198;-81
2021/09/15 04:38:27;;;;;;;31.95;15.80;;;;;;;12.00;72.60;100996.91;1653386;86;21066;-81
2021/09/15 04:40:55;;;;;;;27.73;14.60;;;;;;;12.00;72.60;100996.91;1651731;85;21551;-81
2021/09/15 04:43:22;;;;;;;23.42;14.28;;;;;;;12.14;72.74;101023.03;1640230;86;21087;-81
2021/09/15 04:45:48;;;;;;;25.57;14.35;;;;;;;12.17;72.73;101020.39;1644042;86;21019;-81
2021/09/15 04:48:16;;;;;;;26.93;15.25;;;;;;;12.17;72.78;101003.54;1645456;85;21062;-81
2021/09/15 04:50:42;;;;;;;26.02;13.85;;;;;;;12.20;72.80;100998.74;1659825;86;21094;-81
2021/09/15 04:53:08;;;;;;;25.32;13.78;;;;;;;12.22;72.86;100995.69;1664171;85;21646;-81
2021/09/15 04:55:34;;;;;;;19.20;12.53;;;;;;;12.23;72.79;100998.25;1649738;83;916616;-81
2021/09/15 04:58:01;;;;;;;18.20;12.35;;;;;;;12.23;72.90;100996.95;1650010;86;21449;-82
2021/09/15 05:00:27;;;;;;;20.37;11.97;;;;;;;12.25;72.97;100997.79;1651914;86;21500;-82
2021/09/15 05:02:54;;;;;;;21.42;12.53;;;;;;;12.28;72.98;100992.14;1672068;84;21496;-82
2021/09/15 05:05:20;;;;;;;15.75;11.83;;;;;;;12.29;73.04;100989.52;1680290;84;21976;-82
2021/09/15 05:07:47;;;;;;;15.18;12.25;;;;;;;12.30;73.03;100987.78;1646722;84;20973;-82
2021/09/15 05:10:13;;;;;;;13.80;12.40;;;;;;;12.30;73.06;100979.56;1614153;86;20910;-82
2021/09/15 05:12:39;;;;;;;16.15;11.48;;;;;;;12.32;73.12;100987.31;1652364;86;21564;-82
2021/09/15 05:15:07;;;;;;;14.10;12.28;;;;;;;12.34;73.17;100979.92;1643993;86;20900;-82
2021/09/15 05:17:34;;;;;;;16.07;10.48;;;;;;;12.38;73.22;100980.73;1639467;86;21392;-82
2021/09/15 05:20:00;;;;;;;18.07;11.97;;;;;;;12.43;73.26;100977.61;1655938;86;21396;-82
2021/09/15 05:22:27;;;;;;;13.30;11.88;;;;;;;12.46;73.25;100982.30;1651837;85;21534;-82
2021/09/15 05:24:54;;;;;;;17.37;12.15;;;;;;;12.50;73.33;100981.33;1601348;88;21466;-82
2021/09/15 05:27:20;;;;;;;;;;;;;;;12.56;73.38;100985.11;1661386;85;21393;-82
2021/09/15 05:29:47;;;;;;;17.30;11.80;;;;;;;12.61;73.69;100977.25;1655891;85;20260;-82
2021/09/15 05:32:13;;;;;;;17.05;11.48;;;;;;;12.65;73.42;100975.45;1659655;84;20925;-82
2021/09/15 05:34:40;;;;;;;18.50;13.28;;;;;;;12.70;73.44;100980.11;1662210;84;592501;-82
2021/09/15 05:37:06;;;;;;;;;;;;;;;12.75;73.47;100972.66;1656124;85;21521;-82
2021/09/15 05:39:33;;;;;;;16.48;11.55;;;;;;;12.81;73.82;100985.52;1636852;86;20477;-82
2021/09/15 05:41:59;;;;;;;17.92;12.90;;;;;;;12.86;73.55;100980.23;1662640;84;21005;-82
2021/09/15 05:44:26;;;;;;;18.73;12.82;;;;;;;12.92;73.60;100986.61;1657813;84;22088;-82
2021/09/15 05:46:52;;;;;;;21.10;13.22;;;;;;;13.01;73.65;100990.29;1642161;84;21516;-82
2021/09/15 05:49:18;;;;;;;15.80;12.88;;;;;;;13.07;73.67;100988.88;1652423;84;21505;-82
2021/09/15 05:51:45;;;;;;;15.05;12.00;;;;;;;13.17;73.72;100987.83;1653820;84;21550;-82
2021/09/15 05:54:11;;;;;;;14.23;12.33;;;;;;;13.25;73.71;100985.08;1639657;86;21804;-82
2021/09/15 05:56:42;;;;;;;17.10;12.45;;;;;;;13.34;73.71;100977.09;1654437;86;21863;-82
2021/09/15 05:59:08;;;;;;;;;;;;;;;13.43;73.75;100967.80;1657108;86;21541;-83
2021/09/15 06:01:34;;;;;;;17.70;12.55;;;;;;;13.54;74.10;100972.73;1645709;85;20480;-82
2021/09/15 06:04:01;;;;;;;16.62;12.53;;;;;;;13.69;73.87;100974.12;1650684;85;21557;-82
2021/09/15 06:06:27;;;;;;;16.65;13.30;;;;;;;13.91;73.97;100970.14;1649642;84;21017;-82
2021/09/15 06:08:53;;;;;;;15.25;12.98;;;;;;;14.16;74.01;100962.56;1648613;85;21509;-82
2021/09/15 06:11:20;;;;;;;18.07;12.95;;;;;;;14.43;73.96;100959.73;1643468;84;21577;-82
2021/09/15 06:13:47;;;;;;;15.08;12.23;;;;;;;14.72;74.00;100955.02;1647638;84;418419;-82
2021/09/15 06:16:13;;;;;;;;;;;;;;;15.04;74.00;100958.03;1656167;84;21093;-82
2021/09/15 06:18:39;;;;;;;17.87;13.25;;;;;;;15.40;74.33;100961.27;1637687;85;20514;-82
2021/09/15 06:21:05;;;;;;;19.07;12.45;;;;;;;15.74;73.94;100972.37;1654741;85;21045;-82
2021/09/15 06:23:32;;;;;;;17.75;12.15;;;;;;;16.09;74.04;100965.17;1641064;85;21073;-82
2021/09/15 06:26:00;;;;;;;14.78;11.18;;;;;;;16.42;73.91;100960.09;1639815;85;20986;-82
2021/09/15 06:28:29;;;;;;;13.85;11.43;;;;;;;16.66;73.74;100962.30;1647647;86;21061;-82
2021/09/15 06:30:56;;;;;;;15.10;11.30;;;;;;;16.83;73.65;100961.70;1643366;84;21060;-82
2021/09/15 06:33:23;;;;;;;15.58;11.10;;;;;;;16.99;73.65;100956.31;1646854;85;21462;-82
2021/09/15 06:35:49;;;;;;;16.05;10.90;;;;;;;17.13;73.58;100959.72;1644775;85;21065;-82
2021/09/15 06:38:15;;;;;;;15.63;11.25;;;;;;;17.24;73.62;100951.00;1639335;85;21748;-82
2021/09/15 06:40:42;;;;;;;12.50;11.15;;;;;;;17.41;73.59;100957.73;1645539;85;21164;-82
2021/09/15 06:43:08;;;;;;;14.98;11.88;;;;;;;17.61;73.61;100950.88;1640904;86;21489;-82
2021/09/15 06:45:34;;;;;;;12.85;11.45;;;;;;;17.88;73.61;100951.54;1644325;85;21089;-82
2021/09/15 06:48:01;;;;;;;17.42;11.60;;;;;;;18.11;73.59;100945.76;1626712;85;28638;-82
2021/09/15 06:50:27;;;;;;;12.50;11.25;;;;;;;18.33;73.50;100953.98;1641213;85;21100;-82
2021/09/15 06:52:59;;;;;;;16.50;12.25;;;;;;;18.41;73.27;100949.27;1631321;86;21069;-82
2021/09/15 06:55:26;;;;;;;12.25;10.90;;;;;;;18.32;73.09;100950.52;1632698;85;20982;-82
2021/09/15 06:57:52;;;;;;;11.22;9.98;;;;;;;18.26;73.25;100952.08;1641037;86;21072;-82
2021/09/15 07:00:20;;;;;;;12.28;10.50;;;;;;;18.24;73.22;100954.38;1649684;85;21117;-82
2021/09/15 07:02:47;;;;;;;16.37;11.05;;;;;;;18.23;73.31;100953.52;1643645;85;27631;-82
2021/09/15 07:05:13;;;;;;;15.18;11.90;;;;;;;18.25;73.14;100957.38;1638022;85;22333;-82
2021/09/15 07:07:42;;;;;;;18.12;12.03;;;;;;;18.34;73.27;100953.92;1654518;86;21118;-82
2021/09/15 07:10:10;;;;;;;21.62;11.55;;;;;;;18.55;73.24;100958.70;1659526;84;21560;-82
2021/09/15 07:12:38;;;;;;;16.20;11.30;;;;;;;18.75;73.27;100956.52;1651047;86;21151;-82
2021/09/15 07:15:09;;;;;;;14.05;10.98;;;;;;;18.90;73.02;100950.59;1647286;86;21067;-82
2021/09/15 07:17:35;;;;;;;18.92;11.48;;;;;;;19.01;73.05;100948.80;1654421;84;21091;-82
2021/09/15 07:20:04;;;;;;;13.45;11.15;;;;;;;19.14;73.00;100950.80;1665950;86;26889;-82
2021/09/15 07:22:30;;;;;;;18.92;11.18;;;;;;;19.22;72.87;100950.90;1660896;85;20968;-82
2021/09/15 07:24:56;;;;;;;16.20;11.33;;;;;;;19.31;72.93;100958.31;1667809;85;20932;-82
2021/09/15 07:27:23;;;;;;;15.18;12.28;;;;;;;19.38;72.85;100959.72;1650831;85;20932;-82
2021/09/15 07:29:49;;;;;;;16.20;10.80;;;;;;;19.43;72.73;100965.60;1653379;84;27265;-82
2021/09/15 07:32:16;;;;;;;16.15;11.85;;;;;;;19.41;72.64;100958.27;1650291;84;20868;-82
2021/09/15 07:34:44;;;;;;;13.85;12.28;;;;;;;19.27;72.43;100935.77;1666360;85;21132;-82
2021/09/15 07:37:12;;;;;;;20.55;12.95;;;;;;;19.37;72.47;100952.31;1658394;85;21071;-82
2021/09/15 07:39:39;;;;;;;13.30;11.90;;;;;;;19.33;72.35;100947.28;1641660;86;21091;-82
2021/09/15 07:42:05;;;;;;;18.45;11.95;;;;;;;19.31;72.35;100950.44;1666887;85;21122;-82
2021/09/15 07:44:31;;;;;;;12.90;11.53;;;;;;;19.33;72.26;100953.38;1666638;85;21686;-82
2021/09/15 07:46:58;;;;;;;15.95;12.13;;;;;;;19.33;72.19;100950.76;1661031;84;21067;-82
2021/09/15 07:49:24;;;;;;;16.55;11.57;;;;;;;19.32;72.08;100948.20;1647870;86;21083;-82
2021/09/15 07:51:50;;;;;;;21.17;12.95;;;;;;;19.35;72.01;100942.36;1657240;86;21110;-82
2021/09/15 07:54:17;;;;;;;14.47;12.35;;;;;;;19.32;71.89;100942.50;1671683;82;21618;-82
2021/09/15 07:56:43;;;;;;;16.75;13.43;;;;;;;19.33;71.90;100942.89;1666822;85;21071;-82
2021/09/15 07:59:09;;;;;;;14.13;11.95;;;;;;;19.33;71.75;100932.86;1667341;85;21147;-82
2021/09/15 08:01:36;;;;;;;18.25;12.05;;;;;;;19.32;71.73;100937.26;1657036;83;21071;-82
2021/09/15 08:04:02;;;;;;;12.18;11.08;;;;;;;19.34;71.66;100935.41;1658825;84;21071;-82
2021/09/15 08:06:29;;;;;;;16.62;11.85;;;;;;;19.37;71.62;100928.71;1662634;85;21063;-82
2021/09/15 08:08:56;;;;;;;18.37;13.05;;;;;;;19.39;71.54;100928.64;1663501;85;21067;-82
2021/09/15 08:11:22;;;;;;;;;;;;;;;19.39;71.44;100932.58;1657418;86;21079;-82
2021/09/15 08:13:48;;;;;;;15.05;11.50;;;;;;;19.39;71.29;100933.42;1658920;84;20310;-82
2021/09/15 08:16:15;;;;;;;16.70;11.68;;;;;;;19.38;71.34;100936.12;1655774;86;21080;-82
2021/09/15 08:18:41;;;;;;;17.00;11.53;;;;;;;19.43;71.36;100947.25;1662349;85;21158;-81
2021/09/15 08:21:11;;;;;;;17.65;13.40;;;;;;;19.46;71.29;100958.91;1661438;86;21127;-81
2021/09/15 08:23:37;;;;;;;14.07;12.73;;;;;;;19.48;71.19;100959.68;1658016;84;21540;-81
2021/09/15 08:26:03;;;;;;;19.15;13.85;;;;;;;19.50;71.13;100961.77;1646038;86;21155;-81
2021/09/15 08:28:35;;;;;;;20.32;13.10;;;;;;;19.53;71.04;100962.12;1653348;86;20980;-82
2021/09/15 08:30:58;;;;;;;20.50;13.08;;;;;;;19.56;71.02;100956.73;1665972;86;21547;-82
2021/09/15 08:33:26;;;;;;;15.38;11.12;;;;;;;19.68;71.02;100966.17;1661591;84;21709;-82
2021/09/15 08:35:52;;;;;;;17.10;12.65;;;;;;;19.92;71.23;100954.92;1653816;84;21138;-82
2021/09/15 08:38:19;;;;;;;19.23;12.60;;;;;;;20.32;71.39;100959.47;1656781;84;21138;-81
2021/09/15 08:40:53;;;;;;;15.20;12.05;;;;;;;20.74;71.35;100961.69;1653080;85;21151;-81
2021/09/15 08:43:20;;;;;;;16.67;11.90;;;;;;;21.08;71.09;100958.94;1666014;85;21079;-81
2021/09/15 08:45:47;;;;;;;13.72;11.95;;;;;;;21.34;70.83;100963.24;1666496;86;21571;-81
2021/09/15 08:48:18;;;;;;;22.40;13.60;;;;;;;21.64;70.66;100961.54;1662997;85;21079;-81
2021/09/15 08:50:50;;;;;;;17.32;12.85;;;;;;;22.07;70.36;100957.77;1656847;85;21154;-81
2021/09/15 08:53:18;;;;;;;19.20;13.40;;;;;;;22.06;69.69;100956.08;1641765;85;21067;-81
2021/09/15 08:55:46;;;;;;;16.20;11.73;;;;;;;21.76;69.77;100961.31;1627948;85;279288;-81
2021/09/15 08:58:15;;;;;;;20.95;12.78;;;;;;;21.59;69.81;100958.78;1611201;87;21035;-81
2021/09/15 09:00:43;;;;;;;17.17;13.45;;;;;;;21.53;69.83;100956.03;1622584;86;20950;-81
2021/09/15 09:03:09;;;;;;;22.05;13.05;;;;;;;21.45;69.67;100953.83;1615826;87;21018;-81
2021/09/15 09:05:36;;;;;;;16.97;12.37;;;;;;;21.36;69.62;100953.02;1592717;87;26418;-81
2021/09/15 09:08:24;;;;;;;13.70;12.10;;;;;;;21.33;69.60;100949.24;1613775;88;21356;-81
2021/09/15 09:10:53;;;;;;;17.62;12.30;;;;;;;21.32;69.54;100946.23;1610316;88;20922;-81
2021/09/15 09:13:20;;;;;;;19.40;12.15;;;;;;;21.32;69.41;100942.75;1620031;86;20929;-81
2021/09/15 09:15:47;;;;;;;16.87;13.20;;;;;;;21.32;69.35;100942.28;1629779;87;20965;-81
2021/09/15 09:18:13;;;;;;;12.70;11.35;;;;;;;21.32;69.22;100938.80;1630941;86;21590;-81
2021/09/15 09:20:40;;;;;;;13.55;12.15;;;;;;;21.29;69.10;100934.59;1631267;86;21028;-81
2021/09/15 09:23:18;;;;;;;15.88;11.75;;;;;;;21.31;69.02;100938.45;1617666;86;21013;-81
2021/09/15 09:25:58;;;;;;;13.43;11.97;;;;;;;21.33;68.99;100935.23;1628467;87;21021;-81
2021/09/15 09:28:31;;;;;;;12.98;11.33;;;;;;;21.36;68.89;100933.29;1621551;86;21378;-82
2021/09/15 09:31:04;;;;;;;15.03;12.60;;;;;;;21.37;68.73;100927.56;1631466;87;21065;-82
2021/09/15 09:33:32;;;;;;;17.92;11.20;;;;;;;21.40;68.76;100924.76;1612796;87;21568;-82
2021/09/15 09:36:02;;;;;;;16.05;11.20;;;;;;;21.44;68.65;100919.23;1624431;87;20958;-82
2021/09/15 09:38:36;;;;;;;13.53;12.15;;;;;;;21.51;68.57;100922.38;1617459;86;20891;-82
2021/09/15 09:41:13;;;;;;;12.75;11.40;;;;;;;21.57;68.48;100919.39;1603385;87;20957;-82
2021/09/15 09:43:47;;;;;;;19.40;12.18;;;;;;;21.63;68.35;100913.78;1613048;88;20914;-82
2021/09/15 09:46:20;;;;;;;17.17;12.03;;;;;;;21.69;68.27;100915.22;1617571;88;20981;-82
2021/09/15 09:48:56;;;;;;;15.35;11.78;;;;;;;21.76;68.19;100908.67;1630976;86;20886;-82
2021/09/15 09:51:33;;;;;;;14.70;12.15;;;;;;;21.80;68.06;100908.88;1611633;87;20942;-82
2021/09/15 09:54:23;;;;;;;;;;;;;;;21.83;67.94;100902.11;1616057;87;21036;-82
2021/09/15 09:56:52;;;;;;;15.55;12.07;;;;;;;21.87;67.56;100898.33;1600634;87;20359;-82
2021/09/15 09:59:21;;;;;;;11.73;10.63;;;;;;;21.92;67.67;100898.06;1615822;88;21091;-82
2021/09/15 10:01:51;;;;;;;13.75;10.95;;;;;;;21.92;67.68;100903.33;1601570;87;20934;-82
2021/09/15 10:04:21;;;;;;;12.68;11.38;;;;;;;21.97;67.67;100891.59;1620407;87;20970;-82
2021/09/15 10:06:48;;;;;;;15.28;10.90;;;;;;;22.06;67.59;100888.92;1611130;87;20931;-82
2021/09/15 10:09:15;;;;;;;15.85;11.88;;;;;;;22.10;67.41;100879.42;1600583;87;26342;-82
2021/09/15 10:11:43;;;;;;;12.45;11.08;;;;;;;22.12;67.31;100878.87;1611600;88;20946;-82
2021/09/15 10:14:14;;;;;;;14.47;12.93;;;;;;;22.18;67.29;100875.02;1605567;87;20998;-82
2021/09/15 10:16:48;;;;;;;13.22;11.33;;;;;;;22.27;67.23;100874.47;1604743;87;21586;-82
2021/09/15 10:19:18;;;;;;;24.05;11.93;;;;;;;22.29;67.04;100873.91;1611131;88;20963;-82
2021/09/15 10:21:55;;;;;;;19.25;12.18;;;;;;;22.23;66.85;100876.06;1611183;88;20894;-82
2021/09/15 10:24:25;;;;;;;18.42;11.70;;;;;;;22.18;66.82;100875.48;1585136;89;20946;-82
2021/09/15 10:26:59;;;;;;;12.47;11.28;;;;;;;22.22;66.81;100877.84;1597365;87;21101;-82
2021/09/15 10:29:29;;;;;;;14.85;12.20;;;;;;;22.27;66.76;100872.30;1610310;87;20927;-82
2021/09/15 10:32:09;;;;;;;12.58;11.38;;;;;;;22.34;66.68;100867.88;1610779;87;20967;-81
2021/09/15 10:34:44;;;;;;;18.60;11.53;;;;;;;22.41;66.56;100869.64;1607743;87;21006;-81
2021/09/15 10:37:20;;;;;;;19.87;10.93;;;;;;;22.45;66.52;100863.25;1617165;87;20982;-81
2021/09/15 10:40:11;;;;;;;15.88;11.08;;;;;;;22.51;66.38;100857.60;1615184;87;20942;-81
2021/09/15 10:42:47;;;;;;;12.50;11.22;;;;;;;22.56;66.32;100852.05;1604191;87;21010;-82
2021/09/15 10:45:25;;;;;;;16.00;11.30;;;;;;;22.60;66.22;100847.80;1616352;87;21450;-81
2021/09/15 10:48:02;;;;;;;13.62;10.63;;;;;;;22.70;66.25;100850.72;1611105;86;20974;-81
2021/09/15 10:50:34;;;;;;;13.08;10.38;;;;;;;22.83;66.17;100856.95;1631911;87;20962;-81
2021/09/15 10:53:16;;;;;;;13.20;10.90;;;;;;;22.94;66.05;100849.17;1617641;86;20926;-81
2021/09/15 10:55:57;;;;;;;16.60;10.23;;;;;;;22.99;65.89;100845.77;1600041;89;21498;-81
2021/09/15 10:58:37;;;;;;;16.20;11.25;;;;;;;23.11;65.88;100842.34;1611163;87;20926;-81
2021/09/15 11:01:04;;;;;;;11.95;10.18;;;;;;;23.30;65.85;100836.73;1601236;88;20934;-81
2021/09/15 11:03:41;;;;;;;10.43;9.08;;;;;;;23.44;65.58;100831.83;1624761;87;21038;-81
2021/09/15 11:06:13;;;;;;;14.77;11.43;;;;;;;23.57;65.65;100834.06;1619372;86;20990;-81
2021/09/15 11:08:49;;;;;;;12.10;10.05;;;;;;;23.73;65.52;100834.73;1629396;86;21166;-81
2021/09/15 11:11:26;;;;;;;12.60;9.28;;;;;;;23.83;65.35;100834.11;1633778;86;20910;-81
2021/09/15 11:14:04;;;;;;;11.00;9.93;;;;;;;23.95;65.25;100827.97;1631442;86;20895;-81
2021/09/15 11:16:38;;;;;;;11.20;10.03;;;;;;;24.04;65.06;100827.34;1602438;86;20969;-81
2021/09/15 11:19:12;;;;;;;9.93;8.93;;;;;;;24.10;64.95;100824.28;1631570;86;21144;-81
2021/09/15 11:22:00;;;;;;;12.23;9.83;;;;;;;24.18;64.96;100825.91;1628566;86;20966;-81
2021/09/15 11:24:31;;;;;;;15.18;10.65;;;;;;;24.23;64.79;100824.27;1613567;86;20949;-81
2021/09/15 11:27:07;;;;;;;10.32;9.28;;;;;;;24.26;64.60;100823.62;1611231;86;20970;-81
2021/09/15 11:29:44;;;;;;;12.82;9.23;;;;;;;24.23;64.56;100825.12;1629085;86;20980;-81